createdAt,value
2019-05-28T00:00:42.560Z,3.52
2019-05-28T00:03:10.221Z,3.05
2019-05-28T00:05:37.741Z,2.90
2019-05-28T00:08:05.294Z,3.40
2019-05-28T00:10:33.064Z,3.33
2019-05-28T00:13:01.207Z,3.60
2019-05-28T00:15:29.237Z,3.12
2019-05-28T00:17:57.023Z,4.55
2019-05-28T00:20:25.213Z,3.77
2019-05-28T00:22:52.702Z,5.67
2019-05-28T00:25:20.551Z,4.28
2019-05-28T00:27:48.199Z,4.20
2019-05-28T00:30:20.468Z,3.92
2019-05-28T00:32:45.691Z,4.97
2019-05-28T00:35:13.876Z,4.10
2019-05-28T00:37:41.451Z,3.87
2019-05-28T00:40:09.810Z,3.52
2019-05-28T00:42:37.300Z,3.87
2019-05-28T00:45:06.021Z,4.15
2019-05-28T00:47:33.800Z,3.60
2019-05-28T00:50:01.322Z,3.15
2019-05-28T00:52:28.875Z,3.80
2019-05-28T00:54:56.370Z,3.85
2019-05-28T00:57:24.398Z,3.30
2019-05-28T00:59:52.308Z,3.50
2019-05-28T01:02:20.558Z,4.70
2019-05-28T01:04:48.403Z,4.10
2019-05-28T01:07:15.879Z,4.08
2019-05-28T01:09:43.291Z,4.28
2019-05-28T01:12:11.855Z,3.67
2019-05-28T01:14:39.612Z,3.90
2019-05-28T01:17:07.440Z,3.92
2019-05-28T01:19:35.008Z,4.37
2019-05-28T01:22:02.817Z,3.60
2019-05-28T01:24:30.843Z,3.92
2019-05-28T01:26:58.580Z,3.52
2019-05-28T01:29:26.115Z,4.35
2019-05-28T01:31:53.664Z,3.87
2019-05-28T01:34:21.177Z,4.20
2019-05-28T01:36:48.935Z,4.50
2019-05-28T01:39:16.385Z,4.35
2019-05-28T01:41:43.864Z,3.67
2019-05-28T01:44:11.564Z,4.40
2019-05-28T01:46:38.979Z,3.77
2019-05-28T01:49:06.519Z,4.53
2019-05-28T01:51:34.160Z,4.45
2019-05-28T01:54:01.664Z,4.30
2019-05-28T01:56:29.168Z,4.45
2019-05-28T01:58:56.814Z,4.58
2019-05-28T02:01:25.057Z,4.20
2019-05-28T02:03:52.585Z,3.85
2019-05-28T02:06:20.367Z,3.72
2019-05-28T02:08:48.106Z,4.15
2019-05-28T02:11:15.694Z,3.83
2019-05-28T02:13:43.183Z,4.40
2019-05-28T02:16:10.701Z,3.83
2019-05-28T02:18:38.233Z,4.08
2019-05-28T02:21:05.659Z,4.53
2019-05-28T02:23:33.276Z,4.08
2019-05-28T02:26:00.936Z,4.37
2019-05-28T02:28:28.348Z,4.17
2019-05-28T02:30:55.783Z,4.17
2019-05-28T02:33:23.373Z,4.12
2019-05-28T02:35:51.168Z,3.58
2019-05-28T02:38:19.252Z,3.55
2019-05-28T02:40:46.801Z,3.50
2019-05-28T02:43:14.228Z,3.75
2019-05-28T02:45:42.036Z,3.98
2019-05-28T02:48:09.527Z,4.15
2019-05-28T02:50:57.331Z,4.30
2019-05-28T02:53:24.945Z,4.20
2019-05-28T02:55:53.597Z,4.45
2019-05-28T02:58:21.593Z,4.80
2019-05-28T03:00:49.475Z,4.75
2019-05-28T03:03:20.888Z,5.10
2019-05-28T03:05:51.193Z,5.20
2019-05-28T03:08:22.702Z,5.55
2019-05-28T03:11:02.255Z,5.20
2019-05-28T03:13:19.499Z,6.05
2019-05-28T03:15:48.776Z,5.95
2019-05-28T03:18:18.286Z,5.70
2019-05-28T03:20:47.154Z,5.45
2019-05-28T03:23:15.881Z,5.75
2019-05-28T03:25:43.329Z,5.37
2019-05-28T03:28:11.090Z,5.72
2019-05-28T03:30:38.569Z,5.95
2019-05-28T03:33:06.356Z,5.33
2019-05-28T03:35:34.719Z,5.75
2019-05-28T03:38:02.695Z,4.53
2019-05-28T03:40:40.043Z,5.28
2019-05-28T03:43:07.603Z,4.70
2019-05-28T03:45:35.161Z,4.70
2019-05-28T03:48:02.919Z,4.65
2019-05-28T03:50:30.347Z,4.47
2019-05-28T03:52:58.114Z,4.92
2019-05-28T03:55:25.905Z,4.90
2019-05-28T03:57:53.966Z,4.85
2019-05-28T04:00:21.507Z,4.53
2019-05-28T04:02:49.120Z,4.05
2019-05-28T04:05:16.581Z,4.80
2019-05-28T04:07:44.333Z,4.28
2019-05-28T04:10:11.982Z,4.10
2019-05-28T04:12:39.650Z,4.47
2019-05-28T04:15:07.492Z,4.78
2019-05-28T04:17:35.600Z,5.12
2019-05-28T04:20:04.419Z,4.65
2019-05-28T04:22:31.804Z,4.55
2019-05-28T04:24:59.528Z,4.08
2019-05-28T04:27:27.254Z,4.40
2019-05-28T04:29:54.845Z,4.22
2019-05-28T04:32:37.136Z,4.92
2019-05-28T04:34:51.955Z,5.12
2019-05-28T04:37:19.845Z,4.30
2019-05-28T04:39:47.981Z,4.53
2019-05-28T04:42:15.847Z,4.53
2019-05-28T04:44:43.379Z,4.50
2019-05-28T04:47:11.069Z,4.50
2019-05-28T04:49:38.920Z,6.50
2019-05-28T04:52:06.363Z,5.12
2019-05-28T04:54:34.192Z,4.45
2019-05-28T04:57:01.730Z,3.92
2019-05-28T04:59:29.327Z,4.60
2019-05-28T05:01:56.763Z,4.80
2019-05-28T05:04:24.248Z,4.20
2019-05-28T05:06:51.743Z,4.70
2019-05-28T05:09:19.701Z,4.85
2019-05-28T05:11:47.501Z,4.90
2019-05-28T05:14:15.419Z,4.28
2019-05-28T05:16:43.290Z,5.17
2019-05-28T05:19:10.807Z,4.28
2019-05-28T05:21:38.298Z,4.67
2019-05-28T05:24:05.740Z,4.92
2019-05-28T05:26:33.318Z,4.92
2019-05-28T05:29:00.862Z,4.33
2019-05-28T05:31:28.403Z,4.40
2019-05-28T05:33:56.231Z,3.83
2019-05-28T05:36:23.649Z,4.28
2019-05-28T05:38:51.060Z,4.37
2019-05-28T05:41:18.721Z,4.78
2019-05-28T05:43:46.238Z,4.22
2019-05-28T05:46:14.129Z,4.85
2019-05-28T05:48:41.643Z,4.62
2019-05-28T05:51:09.507Z,4.12
2019-05-28T05:53:37.053Z,4.37
2019-05-28T05:56:04.535Z,3.87
2019-05-28T05:58:32.063Z,4.50
2019-05-28T06:00:59.592Z,4.37
2019-05-28T06:03:39.715Z,3.77
2019-05-28T06:05:56.762Z,4.35
2019-05-28T06:08:24.625Z,3.95
2019-05-28T06:10:52.508Z,3.75
2019-05-28T06:13:19.992Z,3.77
2019-05-28T06:15:47.522Z,3.67
2019-05-28T06:18:15.250Z,3.55
2019-05-28T06:20:42.824Z,3.33
2019-05-28T06:23:10.394Z,3.30
2019-05-28T06:25:38.249Z,3.62
2019-05-28T06:28:05.835Z,3.17
2019-05-28T06:30:33.628Z,3.15
2019-05-28T06:33:01.148Z,3.20
2019-05-28T06:35:28.740Z,3.45
2019-05-28T06:37:56.272Z,3.15
2019-05-28T06:40:23.781Z,3.25
2019-05-28T06:42:51.443Z,3.10
2019-05-28T06:45:19.860Z,3.17
2019-05-28T06:47:47.725Z,3.05
2019-05-28T06:50:15.686Z,2.85
2019-05-28T06:52:43.493Z,3.00
2019-05-28T06:55:11.152Z,2.83
2019-05-28T06:57:38.714Z,2.90
2019-05-28T07:00:07.455Z,2.70
2019-05-28T07:02:34.917Z,2.77
2019-05-28T07:05:02.521Z,2.62
2019-05-28T07:07:30.083Z,3.62
2019-05-28T07:09:57.876Z,3.20
2019-05-28T07:12:25.434Z,2.25
2019-05-28T07:14:52.913Z,2.47
2019-05-28T07:17:20.483Z,2.98
2019-05-28T07:19:48.009Z,3.05
2019-05-28T07:22:15.804Z,3.33
2019-05-28T07:24:43.358Z,3.10
2019-05-28T07:27:10.911Z,3.10
2019-05-28T07:29:38.455Z,3.10
2019-05-28T07:32:06.255Z,3.05
2019-05-28T07:34:34.050Z,2.80
2019-05-28T07:37:01.621Z,3.10
2019-05-28T07:39:29.178Z,3.15
2019-05-28T07:41:56.691Z,2.60
2019-05-28T07:44:24.234Z,3.08
2019-05-28T07:46:51.833Z,2.55
2019-05-28T07:49:19.338Z,3.00
2019-05-28T07:51:47.532Z,2.87
2019-05-28T07:54:15.379Z,2.70
2019-05-28T07:56:43.124Z,2.52
2019-05-28T07:59:10.897Z,3.00
2019-05-28T08:01:38.433Z,3.00
2019-05-28T08:04:06.017Z,2.67
2019-05-28T08:06:33.579Z,2.55
2019-05-28T08:09:01.497Z,2.98
2019-05-28T08:11:29.344Z,2.55
2019-05-28T08:13:56.928Z,2.90
2019-05-28T08:16:25.421Z,3.15
2019-05-28T08:18:52.943Z,3.05
2019-05-28T08:21:20.511Z,2.95
2019-05-28T08:23:47.998Z,2.80
2019-05-28T08:26:15.525Z,2.85
2019-05-28T08:28:43.125Z,2.58
2019-05-28T08:31:16.466Z,2.35
2019-05-28T08:33:40.344Z,2.58
2019-05-28T08:36:08.249Z,2.55
2019-05-28T08:38:36.200Z,2.62
2019-05-28T08:41:03.699Z,2.58
2019-05-28T08:43:31.264Z,2.70
2019-05-28T08:45:58.693Z,2.55
2019-05-28T08:48:26.388Z,2.20
2019-05-28T08:50:53.995Z,2.22
2019-05-28T08:53:21.542Z,1.95
2019-05-28T08:55:49.687Z,1.70
2019-05-28T08:58:17.118Z,1.62
2019-05-28T09:00:44.799Z,1.90
2019-05-28T09:03:12.555Z,1.65
2019-05-28T09:05:40.068Z,1.50
2019-05-28T09:08:07.681Z,1.70
2019-05-28T09:10:35.244Z,2.40
2019-05-28T09:13:02.904Z,2.33
2019-05-28T09:15:30.931Z,1.47
2019-05-28T09:17:58.473Z,1.62
2019-05-28T09:20:26.033Z,1.50
2019-05-28T09:22:53.535Z,1.37
2019-05-28T09:25:21.428Z,1.20
2019-05-28T09:27:49.278Z,1.50
2019-05-28T09:30:18.235Z,1.00
2019-05-28T09:32:45.786Z,1.20
2019-05-28T09:35:14.336Z,0.90
2019-05-28T09:37:41.877Z,1.25
2019-05-28T09:40:10.550Z,1.30
2019-05-28T09:42:38.469Z,1.22
2019-05-28T09:45:21.822Z,0.88
2019-05-28T09:47:38.136Z,1.20
2019-05-28T09:50:26.938Z,0.82
2019-05-28T09:52:52.549Z,0.90
2019-05-28T09:55:05.469Z,0.88
2019-05-28T09:57:46.301Z,0.80
2019-05-28T10:00:02.611Z,1.00
2019-05-28T10:02:30.395Z,1.27
2019-05-28T10:04:58.064Z,1.10
2019-05-28T10:07:25.621Z,0.70
2019-05-28T10:09:53.446Z,1.10
2019-05-28T10:12:21.227Z,0.93
2019-05-28T10:14:48.816Z,1.07
2019-05-28T10:17:16.391Z,0.75
2019-05-28T10:19:44.249Z,1.07
2019-05-28T10:22:11.788Z,0.90
2019-05-28T10:24:39.667Z,0.80
2019-05-28T10:27:07.191Z,0.72
2019-05-28T10:29:34.747Z,0.80
2019-05-28T10:32:02.256Z,0.82
2019-05-28T10:34:29.688Z,0.68
2019-05-28T10:36:57.693Z,0.75
2019-05-28T10:39:25.398Z,0.88
2019-05-28T10:41:52.943Z,0.90
2019-05-28T10:44:20.505Z,0.78
2019-05-28T10:46:48.092Z,0.90
2019-05-28T10:49:15.551Z,1.10
2019-05-28T10:51:43.119Z,1.25
2019-05-28T10:54:10.671Z,1.00
2019-05-28T10:56:38.318Z,0.95
2019-05-28T10:59:05.928Z,0.93
2019-05-28T11:01:33.755Z,0.88
2019-05-28T11:04:01.493Z,1.10
2019-05-28T11:06:29.047Z,1.00
2019-05-28T11:08:56.883Z,2.17
2019-05-28T11:11:24.612Z,1.10
2019-05-28T11:13:53.647Z,1.22
2019-05-28T11:16:21.592Z,1.00
2019-05-28T11:18:49.178Z,1.02
2019-05-28T11:21:17.115Z,0.70
2019-05-28T11:23:44.902Z,0.80
2019-05-28T11:26:12.467Z,0.72
2019-05-28T11:28:40.036Z,0.70
2019-05-28T11:31:07.615Z,0.90
2019-05-28T11:33:35.212Z,1.12
2019-05-28T11:36:03.296Z,0.72
2019-05-28T11:38:31.151Z,0.85
2019-05-28T11:40:58.692Z,0.70
2019-05-28T11:43:26.292Z,0.70
2019-05-28T11:45:53.829Z,0.72
2019-05-28T11:48:21.967Z,0.78
2019-05-28T11:50:49.945Z,0.90
2019-05-28T11:53:18.348Z,0.70
2019-05-28T11:55:46.284Z,0.68
2019-05-28T11:58:13.776Z,0.70
2019-05-28T12:00:41.391Z,0.70
2019-05-28T12:03:09.871Z,0.68
2019-05-28T12:05:37.372Z,0.62
2019-05-28T12:08:05.508Z,0.60
2019-05-28T12:10:33.000Z,1.02
2019-05-28T12:13:01.574Z,0.80
2019-05-28T12:15:29.359Z,0.70
2019-05-28T12:17:56.988Z,0.60
2019-05-28T12:20:25.225Z,0.72
2019-05-28T12:23:09.756Z,0.60
2019-05-28T12:25:22.606Z,0.90
2019-05-28T12:27:50.075Z,0.50
2019-05-28T12:30:18.918Z,0.75
2019-05-28T12:32:46.820Z,0.75
2019-05-28T12:35:27.470Z,0.80
2019-05-28T12:37:49.100Z,0.75
2019-05-28T12:40:17.911Z,0.80
2019-05-28T12:42:45.482Z,0.80
2019-05-28T12:45:14.258Z,0.85
2019-05-28T12:47:41.783Z,0.60
2019-05-28T12:50:20.630Z,0.85
2019-05-28T12:52:40.354Z,0.90
2019-05-28T12:55:08.966Z,0.85
2019-05-28T12:57:37.133Z,1.42
2019-05-28T13:00:06.032Z,0.90
2019-05-28T13:02:33.595Z,0.80
2019-05-28T13:05:01.100Z,0.70
2019-05-28T13:07:28.674Z,0.80
2019-05-28T13:09:56.220Z,0.90
2019-05-28T13:12:24.555Z,0.80
2019-05-28T13:14:53.138Z,1.22
2019-05-28T13:17:21.024Z,0.78
2019-05-28T13:19:48.888Z,0.70
2019-05-28T13:22:16.627Z,0.70
2019-05-28T13:24:44.328Z,0.80
2019-05-28T13:27:18.139Z,1.00
2019-05-28T13:29:41.229Z,0.80
2019-05-28T13:32:09.010Z,0.90
2019-05-28T13:34:36.569Z,0.60
2019-05-28T13:37:04.217Z,0.90
2019-05-28T13:39:31.858Z,0.80
2019-05-28T13:41:59.946Z,1.15
2019-05-28T13:44:28.236Z,0.80
2019-05-28T13:46:56.495Z,0.50
2019-05-28T13:49:24.049Z,0.75
2019-05-28T13:51:52.999Z,0.70
2019-05-28T13:54:20.625Z,0.90
2019-05-28T13:56:48.152Z,0.75
2019-05-28T13:59:15.732Z,0.95
2019-05-28T14:01:43.304Z,0.72
2019-05-28T14:04:10.836Z,0.80
2019-05-28T14:06:43.920Z,0.93
2019-05-28T14:09:08.901Z,0.80
2019-05-28T14:11:36.758Z,0.60
2019-05-28T14:14:04.846Z,0.60
2019-05-28T14:16:32.715Z,0.60
2019-05-28T14:19:00.679Z,0.40
2019-05-28T14:21:28.085Z,0.42
2019-05-28T14:23:56.152Z,0.53
2019-05-28T14:26:23.683Z,0.37
2019-05-28T14:28:53.833Z,0.78
2019-05-28T14:31:21.155Z,0.68
2019-05-28T14:33:48.710Z,0.50
2019-05-28T14:36:16.347Z,0.47
2019-05-28T14:38:44.120Z,1.55
2019-05-28T14:41:12.118Z,1.05
2019-05-28T14:43:39.935Z,0.90
2019-05-28T14:46:07.755Z,0.50
2019-05-28T14:48:35.714Z,0.60
2019-05-28T14:51:03.370Z,0.40
2019-05-28T14:53:30.874Z,0.30
2019-05-28T14:55:58.416Z,0.60
2019-05-28T14:58:26.411Z,0.60
2019-05-28T15:00:54.920Z,0.60
2019-05-28T15:03:22.446Z,0.70
2019-05-28T15:05:50.325Z,0.40
2019-05-28T15:08:17.870Z,0.90
2019-05-28T15:10:45.368Z,1.15
2019-05-28T15:13:13.179Z,1.20
2019-05-28T15:15:40.696Z,1.05
2019-05-28T15:18:08.229Z,1.07
2019-05-28T15:20:36.119Z,0.47
2019-05-28T15:23:04.223Z,0.53
2019-05-28T15:25:31.851Z,0.60
2019-05-28T15:27:59.676Z,0.50
2019-05-28T15:30:28.145Z,0.20
2019-05-28T15:32:55.713Z,0.45
2019-05-28T15:35:23.611Z,0.30
2019-05-28T15:37:51.380Z,0.40
2019-05-28T15:40:20.407Z,0.47
2019-05-28T15:42:48.580Z,0.65
2019-05-28T15:45:16.686Z,0.50
2019-05-28T15:47:45.162Z,0.55
2019-05-28T15:50:13.479Z,0.50
2019-05-28T15:52:41.092Z,0.50
2019-05-28T15:55:09.323Z,0.50
2019-05-28T15:57:36.926Z,0.50
2019-05-28T16:00:05.273Z,0.47
2019-05-28T16:02:32.846Z,0.47
2019-05-28T16:05:00.374Z,0.40
2019-05-28T16:07:27.878Z,0.50
2019-05-28T16:09:56.778Z,0.60
2019-05-28T16:12:24.892Z,0.50
2019-05-28T16:14:52.481Z,0.53
2019-05-28T16:17:20.150Z,0.50
2019-05-28T16:19:47.986Z,0.42
2019-05-28T16:22:15.509Z,0.30
2019-05-28T16:24:42.939Z,1.12
2019-05-28T16:27:10.472Z,0.33
2019-05-28T16:29:37.888Z,0.47
2019-05-28T16:32:05.508Z,0.50
2019-05-28T16:34:33.322Z,0.40
2019-05-28T16:37:01.174Z,0.50
2019-05-28T16:39:28.711Z,0.75
2019-05-28T16:41:56.454Z,0.50
2019-05-28T16:44:24.081Z,0.50
2019-05-28T16:47:14.400Z,0.50
2019-05-28T16:49:21.481Z,0.40
2019-05-28T16:51:49.008Z,0.42
2019-05-28T16:54:19.408Z,0.30
2019-05-28T16:56:46.373Z,0.50
2019-05-28T16:59:14.135Z,0.53
2019-05-28T17:01:42.416Z,0.57
2019-05-28T17:04:10.237Z,0.40
2019-05-28T17:06:38.598Z,0.40
2019-05-28T17:09:06.771Z,0.40
2019-05-28T17:11:34.390Z,0.42
2019-05-28T17:14:02.630Z,0.33
2019-05-28T17:16:30.223Z,0.42
2019-05-28T17:18:58.091Z,0.40
2019-05-28T17:21:25.978Z,0.37
2019-05-28T17:23:53.744Z,0.40
2019-05-28T17:26:21.603Z,0.30
2019-05-28T17:28:49.162Z,0.40
2019-05-28T17:31:17.142Z,0.57
2019-05-28T17:33:44.697Z,0.53
2019-05-28T17:36:12.252Z,0.40
2019-05-28T17:38:40.078Z,0.53
2019-05-28T17:41:07.941Z,0.20
2019-05-28T17:43:35.804Z,0.30
2019-05-28T17:46:03.537Z,0.40
2019-05-28T17:48:31.494Z,0.45
2019-05-28T17:50:59.376Z,0.45
2019-05-28T17:53:28.106Z,0.65
2019-05-28T17:55:55.996Z,0.40
2019-05-28T17:58:23.947Z,0.40
2019-05-28T18:00:52.793Z,0.40
2019-05-28T18:03:20.495Z,0.33
2019-05-28T18:05:48.061Z,0.82
2019-05-28T18:08:15.610Z,0.30
2019-05-28T18:10:43.901Z,0.60
2019-05-28T18:13:11.857Z,2.45
2019-05-28T18:15:39.707Z,1.12
2019-05-28T18:18:08.112Z,0.88
2019-05-28T18:20:35.943Z,0.70
2019-05-28T18:23:03.763Z,0.60
2019-05-28T18:25:31.624Z,0.88
2019-05-28T18:27:59.246Z,0.60
2019-05-28T18:30:27.127Z,0.50
2019-05-28T18:32:55.303Z,0.70
2019-05-28T18:35:22.835Z,0.50
2019-05-28T18:37:50.956Z,0.50
2019-05-28T18:40:18.976Z,0.70
2019-05-28T18:42:46.905Z,1.02
2019-05-28T18:45:14.732Z,0.80
2019-05-28T18:47:42.579Z,0.95
2019-05-28T18:50:10.407Z,0.90
2019-05-28T18:52:37.996Z,0.90
2019-05-28T18:55:05.882Z,0.93
2019-05-28T18:57:33.908Z,1.00
2019-05-28T19:00:01.460Z,1.10
2019-05-28T19:02:29.825Z,1.10
2019-05-28T19:04:57.835Z,0.75
2019-05-28T19:07:26.060Z,0.90
2019-05-28T19:09:53.664Z,1.00
2019-05-28T19:12:21.829Z,0.93
2019-05-28T19:14:49.517Z,1.02
2019-05-28T19:17:17.340Z,0.82
2019-05-28T19:19:45.145Z,0.80
2019-05-28T19:22:13.043Z,0.60
2019-05-28T19:24:41.051Z,0.72
2019-05-28T19:27:09.032Z,0.70
2019-05-28T19:29:36.702Z,0.70
2019-05-28T19:32:04.377Z,0.80
2019-05-28T19:34:32.520Z,0.98
2019-05-28T19:37:02.365Z,1.50
2019-05-28T19:39:30.198Z,4.87
2019-05-28T19:41:59.029Z,2.87
2019-05-28T19:44:27.403Z,2.10
2019-05-28T19:46:55.274Z,2.58
2019-05-28T19:49:22.997Z,1.95
2019-05-28T19:51:50.883Z,2.83
2019-05-28T19:54:18.885Z,2.27
2019-05-28T19:56:46.713Z,1.70
2019-05-28T19:59:14.248Z,1.57
2019-05-28T20:01:41.965Z,2.00
2019-05-28T20:04:09.959Z,1.82
2019-05-28T20:06:38.545Z,1.77
2019-05-28T20:09:06.853Z,2.02
2019-05-28T20:11:35.075Z,1.90
2019-05-28T20:14:05.583Z,1.70
2019-05-28T20:16:32.376Z,1.20
2019-05-28T20:19:00.398Z,1.30
2019-05-28T20:21:28.214Z,1.57
2019-05-28T20:23:56.444Z,1.50
2019-05-28T20:26:24.550Z,1.20
2019-05-28T20:29:07.915Z,1.45
2019-05-28T20:31:24.549Z,0.98
2019-05-28T20:33:52.152Z,1.27
2019-05-28T20:36:20.675Z,1.40
2019-05-28T20:38:48.551Z,2.65
2019-05-28T20:41:18.179Z,2.25
2019-05-28T20:43:46.187Z,1.92
2019-05-28T20:46:14.025Z,1.70
2019-05-28T20:48:42.017Z,1.77
2019-05-28T20:51:21.016Z,2.05
2019-05-28T20:53:39.314Z,1.50
2019-05-28T20:56:06.881Z,2.00
2019-05-28T20:58:40.304Z,1.80
2019-05-28T21:01:04.163Z,2.20
2019-05-28T21:03:31.959Z,2.10
2019-05-28T21:05:59.693Z,2.22
2019-05-28T21:08:27.589Z,2.40
2019-05-28T21:10:55.010Z,2.87
2019-05-28T21:13:22.614Z,1.95
2019-05-28T21:15:50.668Z,2.40
2019-05-28T21:18:18.291Z,2.30
2019-05-28T21:20:45.807Z,2.00
2019-05-28T21:23:13.315Z,2.47
2019-05-28T21:25:41.114Z,1.92
2019-05-28T21:28:09.030Z,2.70
2019-05-28T21:30:37.026Z,2.10
2019-05-28T21:33:04.807Z,2.02
2019-05-28T21:35:32.669Z,2.45
2019-05-28T21:38:01.362Z,2.02
2019-05-28T21:40:29.202Z,3.72
2019-05-28T21:43:04.692Z,2.40
2019-05-28T21:45:26.038Z,2.08
2019-05-28T21:47:54.377Z,2.30
2019-05-28T21:50:22.038Z,2.10
2019-05-28T21:52:49.780Z,2.10
2019-05-28T21:55:18.047Z,2.00
2019-05-28T21:57:45.600Z,2.33
2019-05-28T22:00:26.270Z,2.10
2019-05-28T22:02:54.529Z,1.90
2019-05-28T22:05:22.106Z,2.02
2019-05-28T22:07:49.718Z,2.05
2019-05-28T22:10:17.286Z,2.10
2019-05-28T22:12:44.826Z,2.33
2019-05-28T22:15:12.701Z,1.67
2019-05-28T22:17:40.151Z,2.10
2019-05-28T22:20:08.795Z,2.58
2019-05-28T22:22:36.659Z,2.70
2019-05-28T22:25:04.685Z,3.08
2019-05-28T22:27:32.181Z,3.50
2019-05-28T22:30:00.672Z,3.80
2019-05-28T22:32:28.278Z,4.35
2019-05-28T22:34:55.873Z,4.20
2019-05-28T22:37:23.268Z,3.80
2019-05-28T22:39:50.880Z,4.65
2019-05-28T22:42:18.393Z,4.58
2019-05-28T22:44:46.213Z,4.83
2019-05-28T22:47:13.627Z,5.58
2019-05-28T22:49:41.175Z,5.12
2019-05-28T22:52:08.663Z,5.65
2019-05-28T22:54:36.356Z,6.42
2019-05-28T22:57:05.229Z,6.95
2019-05-28T22:59:36.266Z,7.22
2019-05-28T23:02:02.821Z,8.90
2019-05-28T23:04:30.419Z,10.48
2019-05-28T23:06:59.130Z,9.10
2019-05-28T23:09:27.400Z,8.70
2019-05-28T23:11:55.223Z,14.23
2019-05-28T23:14:22.664Z,11.15
2019-05-28T23:16:50.446Z,11.38
2019-05-28T23:19:18.177Z,8.80
2019-05-28T23:21:45.671Z,8.30
2019-05-28T23:24:13.349Z,9.58
2019-05-28T23:26:41.045Z,10.32
2019-05-28T23:29:09.797Z,9.25
2019-05-28T23:31:37.639Z,9.45
2019-05-28T23:34:06.332Z,9.73
2019-05-28T23:36:34.753Z,10.75
2019-05-28T23:39:02.855Z,10.23
2019-05-28T23:41:30.652Z,9.03
2019-05-28T23:44:01.823Z,9.90
2019-05-28T23:46:27.795Z,9.18
2019-05-28T23:48:55.376Z,8.20
2019-05-28T23:51:22.890Z,8.55
2019-05-28T23:53:50.713Z,9.33
2019-05-28T23:56:18.231Z,8.68
2019-05-28T23:58:45.704Z,8.48
